Map

Track Data

SID SEASON NUMBER BASIN SUBBASIN NAME ISO_TIME NATURE LAT LON WMO_WIND WMO_PRES WMO_AGENCY TRACK_TYPE DIST2LAND LANDFALL IFLAG USA_AGENCY USA_ATCF_ID USA_LAT USA_LON USA_RECORD USA_STATUS USA_WIND USA_PRES USA_SSHS USA_R34_NE USA_R34_SE USA_R34_SW USA_R34_NW USA_R50_NE USA_R50_SE USA_R50_SW USA_R50_NW USA_R64_NE USA_R64_SE USA_R64_SW USA_R64_NW USA_POCI USA_ROCI USA_RMW USA_EYE TOKYO_LAT TOKYO_LON TOKYO_GRADE TOKYO_WIND TOKYO_PRES TOKYO_R50_DIR TOKYO_R50_LONG TOKYO_R50_SHORT TOKYO_R30_DIR TOKYO_R30_LONG TOKYO_R30_SHORT TOKYO_LAND CMA_LAT CMA_LON CMA_CAT CMA_WIND CMA_PRES HKO_LAT HKO_LON HKO_CAT HKO_WIND HKO_PRES NEWDELHI_LAT NEWDELHI_LON NEWDELHI_GRADE NEWDELHI_WIND NEWDELHI_PRES NEWDELHI_CI NEWDELHI_DP NEWDELHI_POCI REUNION_LAT REUNION_LON REUNION_TYPE REUNION_WIND REUNION_PRES REUNION_TNUM REUNION_CI REUNION_RMW REUNION_R34_NE REUNION_R34_SE REUNION_R34_SW REUNION_R34_NW REUNION_R50_NE REUNION_R50_SE REUNION_R50_SW REUNION_R50_NW REUNION_R64_NE REUNION_R64_SE REUNION_R64_SW REUNION_R64_NW BOM_LAT BOM_LON BOM_TYPE BOM_WIND BOM_PRES BOM_TNUM BOM_CI BOM_RMW BOM_R34_NE BOM_R34_SE BOM_R34_SW BOM_R34_NW BOM_R50_NE BOM_R50_SE BOM_R50_SW BOM_R50_NW BOM_R64_NE BOM_R64_SE BOM_R64_SW BOM_R64_NW BOM_ROCI BOM_POCI BOM_EYE BOM_POS_METHOD BOM_PRES_METHOD NADI_LAT NADI_LON NADI_CAT NADI_WIND NADI_PRES WELLINGTON_LAT WELLINGTON_LON WELLINGTON_WIND WELLINGTON_PRES DS824_LAT DS824_LON DS824_STAGE DS824_WIND DS824_PRES TD9636_LAT TD9636_LON TD9636_STAGE TD9636_WIND TD9636_PRES TD9635_LAT TD9635_LON TD9635_WIND TD9635_PRES TD9635_ROCI NEUMANN_LAT NEUMANN_LON NEUMANN_CLASS NEUMANN_WIND NEUMANN_PRES MLC_LAT MLC_LON MLC_CLASS MLC_WIND MLC_PRES USA_GUST BOM_GUST BOM_GUST_PER REUNION_GUST REUNION_GUST_PER USA_SEAHGT USA_SEARAD_NE USA_SEARAD_SE USA_SEARAD_SW USA_SEARAD_NW STORM_SPEED STORM_DIR
1861046S16062 1861 8 SI MM NOT_NAMED 1861-02-14 18:00:00 NR -16.0000 62.0000 main 645 631 __________O___ -1 -16.0000 62.0000 7 4 259
1861046S16062 1861 8 SI MM NOT_NAMED 1861-02-14 21:00:00 NR -16.0375 61.8060 main 631 608 __________P___ -1 -16.0375 61.8060 7 4 257
1861046S16062 1861 8 SI MM NOT_NAMED 1861-02-15 00:00:00 NR -16.0899 61.5997 main 608 585 __________P___ -1 -16.0899 61.5997 7 4 252
1861046S16062 1861 8 SI MM NOT_NAMED 1861-02-15 03:00:00 NR -16.1724 61.3685 main 585 556 __________P___ -1 -16.1724 61.3685 7 5 246
1861046S16062 1861 8 SI MM NOT_NAMED 1861-02-15 06:00:00 NR -16.3000 61.1000 main 556 518 __________O___ -1 -16.3000 61.1000 7 6 241
1861046S16062 1861 8 SI MM NOT_NAMED 1861-02-15 09:00:00 NR -16.4820 60.7861 main 518 481 __________P___ -1 -16.4820 60.7861 7 8 237
1861046S16062 1861 8 SI MM NOT_NAMED 1861-02-15 12:00:00 NR -16.7051 60.4378 main 475 438 __________P___ -1 -16.7051 60.4378 7 8 236
1861046S16062 1861 8 SI MM NOT_NAMED 1861-02-15 15:00:00 NR -16.9507 60.0704 main 429 386 __________P___ -1 -16.9507 60.0704 7 9 235
1861046S16062 1861 8 SI MM NOT_NAMED 1861-02-15 18:00:00 NR -17.2000 59.7000 main 386 345 __________O___ -1 -17.2000 59.7000 7 9 236
1861046S16062 1861 8 SI MM NOT_NAMED 1861-02-15 21:00:00 NR -17.4251 59.3256 main 345 311 __________P___ -1 -17.4251 59.3256 7 8 238
1861046S16062 1861 8 SI MM NOT_NAMED 1861-02-16 00:00:00 NR -17.6502 58.9550 main 301 263 __________P___ -1 -17.6502 58.9550 7 8 237
1861046S16062 1861 8 SI MM NOT_NAMED 1861-02-16 03:00:00 NR -17.8751 58.6069 main 263 232 __________P___ -1 -17.8751 58.6069 7 8 234
1861046S16062 1861 8 SI MM NOT_NAMED 1861-02-16 06:00:00 NR -18.1000 58.3000 main 232 205 __________O___ -1 -18.1000 58.3000 7 7 229
1861046S16062 1861 8 SI MM NOT_NAMED 1861-02-16 09:00:00 NR -18.3369 58.0445 main 203 168 __________P___ -1 -18.3369 58.0445 7 7 223
1861046S16062 1861 8 SI MM NOT_NAMED 1861-02-16 12:00:00 NR -18.5722 57.8323 main 168 145 __________P___ -1 -18.5722 57.8323 7 6 219
1861046S16062 1861 8 SI MM NOT_NAMED 1861-02-16 15:00:00 NR -18.7964 57.6539 main 145 123 __________P___ -1 -18.7964 57.6539 7 5 216
1861046S16062 1861 8 SI MM NOT_NAMED 1861-02-16 18:00:00 NR -19.0000 57.5000 main 123 112 __________O___ -1 -19.0000 57.5000 7 5 219
1861046S16062 1861 8 SI MM NOT_NAMED 1861-02-16 21:00:00 NR -19.1511 57.3531 main 101 91 __________P___ -1 -19.1511 57.3531 7 4 222
1861046S16062 1861 8 SI MM NOT_NAMED 1861-02-17 00:00:00 NR -19.2849 57.2270 main 94 84 __________P___ -1 -19.2849 57.2270 7 4 219
1861046S16062 1861 8 SI MM NOT_NAMED 1861-02-17 03:00:00 NR -19.4262 57.1124 main 88 76 __________P___ -1 -19.4262 57.1124 7 4 214
1861046S16062 1861 8 SI MM NOT_NAMED 1861-02-17 06:00:00 NR -19.6000 57.0000 main 76 68 __________O___ -1 -19.6000 57.0000 7 5 209
1861046S16062 1861 8 SI MM NOT_NAMED 1861-02-17 09:00:00 NR -19.8432 56.8630 main 71 66 __________P___ -1 -19.8432 56.8630 7 6 206
1861046S16062 1861 8 SI MM NOT_NAMED 1861-02-17 12:00:00 NR -20.1201 56.7278 main 76 66 __________P___ -1 -20.1201 56.7278 7 6 203
1861046S16062 1861 8 SI MM NOT_NAMED 1861-02-17 15:00:00 NR -20.4119 56.6036 main 73 72 __________P___ -1 -20.4119 56.6036 7 6 200
1861046S16062 1861 8 SI MM NOT_NAMED 1861-02-17 18:00:00 NR -20.7000 56.5000 main 85 66 __________O___ -1 -20.7000 56.5000 7 6 199
1861046S16062 1861 8 SI MM NOT_NAMED 1861-02-17 21:00:00 NR -20.9368 56.4161 main 66 62 __________P___ -1 -20.9368 56.4161 7 5 196
1861046S16062 1861 8 SI MM NOT_NAMED 1861-02-18 00:00:00 NR -21.1700 56.3549 main 62 51 __________P___ -1 -21.1700 56.3549 7 5 191
1861046S16062 1861 8 SI MM NOT_NAMED 1861-02-18 03:00:00 NR -21.4181 56.3162 main 52 52 __________P___ -1 -21.4181 56.3162 7 5 185
1861046S16062 1861 8 SI MM NOT_NAMED 1861-02-18 06:00:00 NR -21.7000 56.3000 main 68 68 __________O___ -1 -21.7000 56.3000 7 6 182
1861046S16062 1861 8 SI MM NOT_NAMED 1861-02-18 09:00:00 NR -22.0431 56.2873 main 93 93 __________P___ -1 -22.0431 56.2873 7 7 0
1861046S16062 1861 8 SI MM NOT_NAMED 1861-02-18 12:00:00 NR -22.4199 56.2977 main 133 133 __________P___ -1 -22.4199 56.2977 7 8 176
1861046S16062 1861 8 SI MM NOT_NAMED 1861-02-18 15:00:00 NR -22.8118 56.3343 main 172 172 __________P___ -1 -22.8118 56.3343 7 8 173
1861046S16062 1861 8 SI MM NOT_NAMED 1861-02-18 18:00:00 NR -23.2000 56.4000 main 217 217 __________O___ -1 -23.2000 56.4000 7 8 170
1861046S16062 1861 8 SI MM NOT_NAMED 1861-02-18 21:00:00 NR -23.5570 56.4722 main 262 262 __________P___ -1 -23.5570 56.4722 7 7 167
1861046S16062 1861 8 SI MM NOT_NAMED 1861-02-19 00:00:00 NR -23.9072 56.5756 main 297 297 __________P___ -1 -23.9072 56.5756 7 7 162
1861046S16062 1861 8 SI MM NOT_NAMED 1861-02-19 03:00:00 NR -24.2538 56.7162 main 343 343 __________P___ -1 -24.2538 56.7162 7 8 157
1861046S16062 1861 8 SI MM NOT_NAMED 1861-02-19 06:00:00 NR -24.6000 56.9000 main 381 381 __________O___ -1 -24.6000 56.9000 7 8 152
1861046S16062 1861 8 SI MM NOT_NAMED 1861-02-19 09:00:00 NR -24.9705 57.1354 main 430 430 __________P___ -1 -24.9705 57.1354 7 9 148
1861046S16062 1861 8 SI MM NOT_NAMED 1861-02-19 12:00:00 NR -25.3378 57.4117 main 473 473 __________P___ -1 -25.3378 57.4117 7 9 144
1861046S16062 1861 8 SI MM NOT_NAMED 1861-02-19 15:00:00 NR -25.6861 57.7073 main 526 526 __________P___ -1 -25.6861 57.7073 7 9 141
1861046S16062 1861 8 SI MM NOT_NAMED 1861-02-19 18:00:00 NR -26.0000 58.0000 main 569 569 __________O___ -1 -26.0000 58.0000 7 8 140
1861046S16062 1861 8 SI MM NOT_NAMED 1861-02-19 21:00:00 NR -26.2688 58.2578 main 612 612 __________P___ -1 -26.2688 58.2578 7 7 138
1861046S16062 1861 8 SI MM NOT_NAMED 1861-02-20 00:00:00 NR -26.5022 58.5083 main 641 641 __________P___ -1 -26.5022 58.5083 7 6 135
1861046S16062 1861 8 SI MM NOT_NAMED 1861-02-20 03:00:00 NR -26.7095 58.7546 main 675 675 __________P___ -1 -26.7095 58.7546 7 6 132
1861046S16062 1861 8 SI MM NOT_NAMED 1861-02-20 06:00:00 NR -26.9000 59.0000 main 704 704 __________O___ -1 -26.9000 59.0000 7 6 131
1861046S16062 1861 8 SI MM NOT_NAMED 1861-02-20 09:00:00 NR -27.0892 59.2504 main 738 738 __________P___ -1 -27.0892 59.2504 7 6 129
1861046S16062 1861 8 SI MM NOT_NAMED 1861-02-20 12:00:00 NR -27.2648 59.5005 main 767 767 __________P___ -1 -27.2648 59.5005 7 6 128
1861046S16062 1861 8 SI MM NOT_NAMED 1861-02-20 15:00:00 NR -27.4330 59.7504 main 792 792 __________P___ -1 -27.4330 59.7504 7 6 127
1861046S16062 1861 8 SI MM NOT_NAMED 1861-02-20 18:00:00 NR -27.6000 60.0000 main 822 822 __________O___ -1 -27.6000 60.0000 7 6 127
1861046S16062 1861 8 SI MM NOT_NAMED 1861-02-20 21:00:00 NR -27.7708 60.2495 main 851 851 __________P___ -1 -27.7708 60.2495 7 6 128
1861046S16062 1861 8 SI MM NOT_NAMED 1861-02-21 00:00:00 NR -27.9454 60.4992 main 874 874 __________P___ -1 -27.9454 60.4992 7 6 128
1861046S16062 1861 8 SI MM NOT_NAMED 1861-02-21 03:00:00 NR -28.1222 60.7493 main 901 901 __________P___ -1 -28.1222 60.7493 7 6 129
1861046S16062 1861 8 SI MM NOT_NAMED 1861-02-21 06:00:00 NR -28.3000 61.0000 main 933 __________O___ -1 -28.3000 61.0000 7 6 129

About IBTrACS Database

This database is a web-friendly format of International Best Track Archive for Climate Stewardship (IBTrACS), a global best track data archive curated by NOAA dating back to 1842.

Updated: 2021-10-19